sensor_id;sensor_type;location;lat;lon;timestamp;P1;durP1;ratioP1;P2;durP2;ratioP2
61675;SDS011;47574;52.090;5.244;2023-05-17T00:01:25;22.5;;;6.5;;
61675;SDS011;47574;52.090;5.244;2023-05-17T00:04:38;20.5;;;6.2;;
61675;SDS011;47574;52.090;5.244;2023-05-17T00:06:14;18.5;;;5.9;;
61675;SDS011;47574;52.090;5.244;2023-05-17T00:07:50;20.9;;;7.1;;
61675;SDS011;47574;52.090;5.244;2023-05-17T00:11:02;22.0;;;6.8;;
61675;SDS011;47574;52.090;5.244;2023-05-17T00:12:38;19.61;;;6.7;;
61675;SDS011;47574;52.090;5.244;2023-05-17T00:14:15;20.0;;;6.9;;
61675;SDS011;47574;52.090;5.244;2023-05-17T00:19:03;19.5;;;6.2;;
61675;SDS011;47574;52.090;5.244;2023-05-17T00:20:39;20.41;;;6.2;;
61675;SDS011;47574;52.090;5.244;2023-05-17T00:22:15;19.2;;;6.1;;
61675;SDS011;47574;52.090;5.244;2023-05-17T00:25:28;17.61;;;6.7;;
61675;SDS011;47574;52.090;5.244;2023-05-17T00:27:04;19.3;;;6.0;;
61675;SDS011;47574;52.090;5.244;2023-05-17T00:28:40;21.7;;;7.1;;
61675;SDS011;47574;52.090;5.244;2023-05-17T00:31:52;19.41;;;6.5;;
61675;SDS011;47574;52.090;5.244;2023-05-17T00:33:28;18.61;;;6.7;;
61675;SDS011;47574;52.090;5.244;2023-05-17T00:35:05;22.1;;;6.5;;
61675;SDS011;47574;52.090;5.244;2023-05-17T00:38:18;19.41;;;5.7;;
61675;SDS011;47574;52.090;5.244;2023-05-17T00:39:54;21.0;;;6.5;;
61675;SDS011;47574;52.090;5.244;2023-05-17T00:41:30;24.0;;;6.8;;
61675;SDS011;47574;52.090;5.244;2023-05-17T00:43:06;21.3;;;6.4;;
61675;SDS011;47574;52.090;5.244;2023-05-17T00:46:19;22.9;;;6.2;;
61675;SDS011;47574;52.090;5.244;2023-05-17T00:47:55;21.0;;;5.9;;
61675;SDS011;47574;52.090;5.244;2023-05-17T00:49:31;22.1;;;6.4;;
61675;SDS011;47574;52.090;5.244;2023-05-17T00:52:45;18.11;;;5.9;;
61675;SDS011;47574;52.090;5.244;2023-05-17T00:54:21;23.6;;;6.0;;
61675;SDS011;47574;52.090;5.244;2023-05-17T00:55:57;20.8;;;6.2;;
61675;SDS011;47574;52.090;5.244;2023-05-17T00:59:11;20.5;;;6.1;;
61675;SDS011;47574;52.090;5.244;2023-05-17T01:00:48;18.91;;;6.0;;
61675;SDS011;47574;52.090;5.244;2023-05-17T01:02:25;17.5;;;6.0;;
61675;SDS011;47574;52.090;5.244;2023-05-17T01:04:01;21.6;;;6.6;;
61675;SDS011;47574;52.090;5.244;2023-05-17T01:07:14;21.7;;;6.8;;
61675;SDS011;47574;52.090;5.244;2023-05-17T01:08:51;23.1;;;6.6;;
61675;SDS011;47574;52.090;5.244;2023-05-17T01:10:29;19.8;;;6.6;;
61675;SDS011;47574;52.090;5.244;2023-05-17T01:14:08;20.2;;;6.5;;
61675;SDS011;47574;52.090;5.244;2023-05-17T01:16:01;19.91;;;6.5;;
61675;SDS011;47574;52.090;5.244;2023-05-17T01:17:47;19.61;;;6.4;;
61675;SDS011;47574;52.090;5.244;2023-05-17T01:20:10;23.5;;;6.6;;
61675;SDS011;47574;52.090;5.244;2023-05-17T01:21:56;22.2;;;7.1;;
61675;SDS011;47574;52.090;5.244;2023-05-17T01:23:47;19.61;;;6.6;;
61675;SDS011;47574;52.090;5.244;2023-05-17T01:25:40;19.41;;;6.6;;
61675;SDS011;47574;52.090;5.244;2023-05-17T01:27:37;22.2;;;7.1;;
61675;SDS011;47574;52.090;5.244;2023-05-17T01:29:16;23.1;;;6.9;;
61675;SDS011;47574;52.090;5.244;2023-05-17T01:32:36;24.8;;;7.2;;
61675;SDS011;47574;52.090;5.244;2023-05-17T01:34:22;21.5;;;6.7;;
61675;SDS011;47574;52.090;5.244;2023-05-17T01:35:59;24.3;;;7.8;;
61675;SDS011;47574;52.090;5.244;2023-05-17T01:37:36;22.7;;;7.0;;
61675;SDS011;47574;52.090;5.244;2023-05-17T01:40:51;24.9;;;6.7;;
61675;SDS011;47574;52.090;5.244;2023-05-17T01:42:42;20.9;;;6.5;;
61675;SDS011;47574;52.090;5.244;2023-05-17T01:44:21;26.0;;;7.3;;
61675;SDS011;47574;52.090;5.244;2023-05-17T01:46:06;24.6;;;6.7;;
61675;SDS011;47574;52.090;5.244;2023-05-17T01:47:52;21.2;;;6.7;;
61675;SDS011;47574;52.090;5.244;2023-05-17T01:51:28;20.8;;;6.9;;
61675;SDS011;47574;52.090;5.244;2023-05-17T01:53:14;20.11;;;6.9;;
61675;SDS011;47574;52.090;5.244;2023-05-17T01:54:55;24.3;;;7.2;;
61675;SDS011;47574;52.090;5.244;2023-05-17T01:56:42;23.5;;;6.9;;
61675;SDS011;47574;52.090;5.244;2023-05-17T01:58:24;20.8;;;6.4;;
61675;SDS011;47574;52.090;5.244;2023-05-17T02:01:42;20.3;;;6.6;;
61675;SDS011;47574;52.090;5.244;2023-05-17T02:03:19;23.7;;;7.0;;
61675;SDS011;47574;52.090;5.244;2023-05-17T02:04:56;21.9;;;6.9;;
61675;SDS011;47574;52.090;5.244;2023-05-17T02:08:08;23.8;;;7.3;;
61675;SDS011;47574;52.090;5.244;2023-05-17T02:09:45;21.5;;;6.9;;
61675;SDS011;47574;52.090;5.244;2023-05-17T02:11:21;25.5;;;6.6;;
61675;SDS011;47574;52.090;5.244;2023-05-17T02:12:57;20.0;;;7.0;;
61675;SDS011;47574;52.090;5.244;2023-05-17T02:16:09;20.7;;;7.9;;
61675;SDS011;47574;52.090;5.244;2023-05-17T02:17:45;24.3;;;6.9;;
61675;SDS011;47574;52.090;5.244;2023-05-17T02:19:22;22.1;;;6.4;;
61675;SDS011;47574;52.090;5.244;2023-05-17T02:22:34;19.91;;;6.8;;
61675;SDS011;47574;52.090;5.244;2023-05-17T02:24:10;18.5;;;6.0;;
61675;SDS011;47574;52.090;5.244;2023-05-17T02:25:46;20.11;;;6.8;;
61675;SDS011;47574;52.090;5.244;2023-05-17T02:28:59;22.7;;;6.8;;
61675;SDS011;47574;52.090;5.244;2023-05-17T02:30:35;21.3;;;6.5;;
61675;SDS011;47574;52.090;5.244;2023-05-17T02:32:12;18.8;;;6.7;;
61675;SDS011;47574;52.090;5.244;2023-05-17T02:35:24;19.8;;;7.0;;
61675;SDS011;47574;52.090;5.244;2023-05-17T02:37:00;21.6;;;7.2;;
61675;SDS011;47574;52.090;5.244;2023-05-17T02:38:36;21.1;;;6.4;;
61675;SDS011;47574;52.090;5.244;2023-05-17T02:40:13;22.1;;;7.1;;
61675;SDS011;47574;52.090;5.244;2023-05-17T02:43:25;21.3;;;6.7;;
61675;SDS011;47574;52.090;5.244;2023-05-17T02:45:01;20.0;;;7.6;;
61675;SDS011;47574;52.090;5.244;2023-05-17T02:46:38;22.1;;;7.0;;
61675;SDS011;47574;52.090;5.244;2023-05-17T02:49:51;21.9;;;7.2;;
61675;SDS011;47574;52.090;5.244;2023-05-17T02:51:27;21.9;;;8.5;;
61675;SDS011;47574;52.090;5.244;2023-05-17T02:53:03;23.5;;;7.3;;
61675;SDS011;47574;52.090;5.244;2023-05-17T02:56:15;26.1;;;7.8;;
61675;SDS011;47574;52.090;5.244;2023-05-17T02:57:51;22.0;;;7.0;;
61675;SDS011;47574;52.090;5.244;2023-05-17T02:59:28;23.4;;;8.2;;
61675;SDS011;47574;52.090;5.244;2023-05-17T03:01:04;22.0;;;7.1;;
61675;SDS011;47574;52.090;5.244;2023-05-17T03:04:16;17.3;;;6.8;;
61675;SDS011;47574;52.090;5.244;2023-05-17T03:05:52;20.0;;;7.2;;
61675;SDS011;47574;52.090;5.244;2023-05-17T03:07:28;22.0;;;7.9;;
61675;SDS011;47574;52.090;5.244;2023-05-17T03:10:41;25.5;;;8.4;;
61675;SDS011;47574;52.090;5.244;2023-05-17T03:12:17;21.0;;;8.0;;
61675;SDS011;47574;52.090;5.244;2023-05-17T03:13:53;20.8;;;6.9;;
61675;SDS011;47574;52.090;5.244;2023-05-17T03:17:05;21.4;;;8.0;;
61675;SDS011;47574;52.090;5.244;2023-05-17T03:18:42;23.7;;;8.5;;
61675;SDS011;47574;52.090;5.244;2023-05-17T03:20:18;22.3;;;8.2;;
61675;SDS011;47574;52.090;5.244;2023-05-17T03:23:30;24.1;;;8.1;;
61675;SDS011;47574;52.090;5.244;2023-05-17T03:25:06;25.4;;;7.7;;
61675;SDS011;47574;52.090;5.244;2023-05-17T03:26:42;25.2;;;8.4;;
61675;SDS011;47574;52.090;5.244;2023-05-17T03:28:18;28.0;;;7.9;;
61675;SDS011;47574;52.090;5.244;2023-05-17T03:31:31;23.4;;;7.9;;
61675;SDS011;47574;52.090;5.244;2023-05-17T03:33:07;22.9;;;8.1;;
61675;SDS011;47574;52.090;5.244;2023-05-17T03:34:43;21.1;;;7.4;;
61675;SDS011;47574;52.090;5.244;2023-05-17T03:37:56;21.1;;;7.3;;
61675;SDS011;47574;52.090;5.244;2023-05-17T03:39:32;26.2;;;8.2;;
61675;SDS011;47574;52.090;5.244;2023-05-17T03:41:08;23.0;;;7.7;;
61675;SDS011;47574;52.090;5.244;2023-05-17T03:44:22;22.8;;;7.7;;
61675;SDS011;47574;52.090;5.244;2023-05-17T03:45:58;19.7;;;7.1;;
61675;SDS011;47574;52.090;5.244;2023-05-17T03:47:35;25.7;;;7.1;;
61675;SDS011;47574;52.090;5.244;2023-05-17T03:49:11;21.4;;;7.7;;
61675;SDS011;47574;52.090;5.244;2023-05-17T03:52:23;21.8;;;7.0;;
61675;SDS011;47574;52.090;5.244;2023-05-17T03:53:59;24.1;;;7.3;;
61675;SDS011;47574;52.090;5.244;2023-05-17T03:55:35;22.7;;;7.0;;
61675;SDS011;47574;52.090;5.244;2023-05-17T03:58:48;20.5;;;7.4;;
61675;SDS011;47574;52.090;5.244;2023-05-17T04:00:24;19.7;;;6.8;;
61675;SDS011;47574;52.090;5.244;2023-05-17T04:02:00;20.8;;;6.5;;
61675;SDS011;47574;52.090;5.244;2023-05-17T04:05:12;23.6;;;6.5;;
61675;SDS011;47574;52.090;5.244;2023-05-17T04:06:48;20.6;;;6.5;;
61675;SDS011;47574;52.090;5.244;2023-05-17T04:08:25;19.61;;;6.3;;
61675;SDS011;47574;52.090;5.244;2023-05-17T04:11:37;22.6;;;6.7;;
61675;SDS011;47574;52.090;5.244;2023-05-17T04:13:13;24.1;;;6.1;;
61675;SDS011;47574;52.090;5.244;2023-05-17T04:14:49;21.0;;;6.8;;
61675;SDS011;47574;52.090;5.244;2023-05-17T04:16:25;25.4;;;6.7;;
61675;SDS011;47574;52.090;5.244;2023-05-17T04:19:38;21.6;;;6.7;;
61675;SDS011;47574;52.090;5.244;2023-05-17T04:21:14;16.2;;;5.2;;
61675;SDS011;47574;52.090;5.244;2023-05-17T04:22:50;25.1;;;6.0;;
61675;SDS011;47574;52.090;5.244;2023-05-17T04:26:02;20.9;;;6.1;;
61675;SDS011;47574;52.090;5.244;2023-05-17T04:27:40;24.6;;;6.2;;
61675;SDS011;47574;52.090;5.244;2023-05-17T04:29:16;24.1;;;5.6;;
61675;SDS011;47574;52.090;5.244;2023-05-17T04:32:28;21.9;;;6.0;;
61675;SDS011;47574;52.090;5.244;2023-05-17T04:34:04;21.2;;;4.91;;
61675;SDS011;47574;52.090;5.244;2023-05-17T04:35:41;19.41;;;5.3;;
61675;SDS011;47574;52.090;5.244;2023-05-17T04:37:18;19.7;;;5.0;;
61675;SDS011;47574;52.090;5.244;2023-05-17T04:40:31;22.5;;;5.7;;
61675;SDS011;47574;52.090;5.244;2023-05-17T04:42:07;20.41;;;4.41;;
61675;SDS011;47574;52.090;5.244;2023-05-17T04:43:43;19.3;;;4.61;;
61675;SDS011;47574;52.090;5.244;2023-05-17T04:46:56;20.11;;;5.5;;
61675;SDS011;47574;52.090;5.244;2023-05-17T04:48:32;24.5;;;6.1;;
61675;SDS011;47574;52.090;5.244;2023-05-17T04:50:08;19.8;;;5.3;;
61675;SDS011;47574;52.090;5.244;2023-05-17T04:53:20;20.41;;;5.3;;
61675;SDS011;47574;52.090;5.244;2023-05-17T04:54:56;20.9;;;4.91;;
61675;SDS011;47574;52.090;5.244;2023-05-17T04:56:33;16.4;;;4.91;;
61675;SDS011;47574;52.090;5.244;2023-05-17T04:59:46;23.7;;;4.8;;
61675;SDS011;47574;52.090;5.244;2023-05-17T05:01:22;19.5;;;4.7;;
61675;SDS011;47574;52.090;5.244;2023-05-17T05:02:58;18.41;;;4.8;;
61675;SDS011;47574;52.090;5.244;2023-05-17T05:04:34;22.0;;;4.91;;
61675;SDS011;47574;52.090;5.244;2023-05-17T05:07:47;21.9;;;4.8;;
61675;SDS011;47574;52.090;5.244;2023-05-17T05:09:23;15.3;;;4.41;;
61675;SDS011;47574;52.090;5.244;2023-05-17T05:10:59;26.1;;;5.11;;
61675;SDS011;47574;52.090;5.244;2023-05-17T05:14:12;22.2;;;4.91;;
61675;SDS011;47574;52.090;5.244;2023-05-17T05:15:48;20.8;;;4.61;;
61675;SDS011;47574;52.090;5.244;2023-05-17T05:17:25;19.11;;;3.9;;
61675;SDS011;47574;52.090;5.244;2023-05-17T05:20:37;18.5;;;4.8;;
61675;SDS011;47574;52.090;5.244;2023-05-17T05:22:13;22.9;;;5.2;;
61675;SDS011;47574;52.090;5.244;2023-05-17T05:23:49;19.3;;;4.41;;
61675;SDS011;47574;52.090;5.244;2023-05-17T05:25:26;22.2;;;4.91;;
61675;SDS011;47574;52.090;5.244;2023-05-17T05:28:38;20.5;;;4.61;;
61675;SDS011;47574;52.090;5.244;2023-05-17T05:30:14;22.4;;;5.0;;
61675;SDS011;47574;52.090;5.244;2023-05-17T05:31:50;23.9;;;4.41;;
61675;SDS011;47574;52.090;5.244;2023-05-17T05:35:03;20.7;;;4.7;;
61675;SDS011;47574;52.090;5.244;2023-05-17T05:36:39;22.2;;;4.7;;
61675;SDS011;47574;52.090;5.244;2023-05-17T05:38:16;19.91;;;4.3;;
61675;SDS011;47574;52.090;5.244;2023-05-17T05:41:28;16.8;;;3.8;;
61675;SDS011;47574;52.090;5.244;2023-05-17T05:43:04;16.8;;;3.8;;
61675;SDS011;47574;52.090;5.244;2023-05-17T05:44:40;18.3;;;4.0;;
61675;SDS011;47574;52.090;5.244;2023-05-17T05:47:53;19.91;;;4.8;;
61675;SDS011;47574;52.090;5.244;2023-05-17T05:49:29;22.6;;;5.0;;
61675;SDS011;47574;52.090;5.244;2023-05-17T05:51:05;21.3;;;4.7;;
61675;SDS011;47574;52.090;5.244;2023-05-17T05:52:41;20.2;;;4.2;;
61675;SDS011;47574;52.090;5.244;2023-05-17T05:55:53;20.6;;;4.0;;
61675;SDS011;47574;52.090;5.244;2023-05-17T05:57:30;22.8;;;4.7;;
61675;SDS011;47574;52.090;5.244;2023-05-17T05:59:06;24.0;;;4.8;;
61675;SDS011;47574;52.090;5.244;2023-05-17T06:02:18;24.8;;;5.11;;
61675;SDS011;47574;52.090;5.244;2023-05-17T06:03:54;19.5;;;4.5;;
61675;SDS011;47574;52.090;5.244;2023-05-17T06:05:30;20.3;;;4.3;;
61675;SDS011;47574;52.090;5.244;2023-05-17T06:08:43;19.61;;;3.8;;
61675;SDS011;47574;52.090;5.244;2023-05-17T06:10:19;15.9;;;3.6;;
61675;SDS011;47574;52.090;5.244;2023-05-17T06:11:55;20.11;;;4.1;;
61675;SDS011;47574;52.090;5.244;2023-05-17T06:15:08;20.0;;;3.9;;
61675;SDS011;47574;52.090;5.244;2023-05-17T06:16:45;19.5;;;4.61;;
61675;SDS011;47574;52.090;5.244;2023-05-17T06:18:21;20.3;;;4.61;;
61675;SDS011;47574;52.090;5.244;2023-05-17T06:19:57;19.0;;;4.0;;
61675;SDS011;47574;52.090;5.244;2023-05-17T06:23:09;19.7;;;3.9;;
61675;SDS011;47574;52.090;5.244;2023-05-17T06:24:45;22.4;;;3.6;;
61675;SDS011;47574;52.090;5.244;2023-05-17T06:26:22;22.4;;;3.6;;
61675;SDS011;47574;52.090;5.244;2023-05-17T06:29:34;16.5;;;3.5;;
61675;SDS011;47574;52.090;5.244;2023-05-17T06:37:13;18.2;;;3.4;;
61675;SDS011;47574;52.090;5.244;2023-05-17T06:38:49;14.8;;;2.8;;
61675;SDS011;47574;52.090;5.244;2023-05-17T06:42:00;18.3;;;3.5;;
61675;SDS011;47574;52.090;5.244;2023-05-17T06:43:36;15.0;;;2.8;;
61675;SDS011;47574;52.090;5.244;2023-05-17T06:45:12;18.3;;;3.9;;
61675;SDS011;47574;52.090;5.244;2023-05-17T06:48:25;17.3;;;3.3;;
61675;SDS011;47574;52.090;5.244;2023-05-17T06:50:01;16.2;;;3.1;;
61675;SDS011;47574;52.090;5.244;2023-05-17T06:51:37;16.3;;;3.2;;
61675;SDS011;47574;52.090;5.244;2023-05-17T06:54:52;17.0;;;3.3;;
61675;SDS011;47574;52.090;5.244;2023-05-17T06:56:31;16.7;;;3.2;;
61675;SDS011;47574;52.090;5.244;2023-05-17T06:58:08;19.2;;;3.2;;
61675;SDS011;47574;52.090;5.244;2023-05-17T06:59:45;11.8;;;2.5;;
61675;SDS011;47574;52.090;5.244;2023-05-17T07:03:02;12.9;;;2.8;;
61675;SDS011;47574;52.090;5.244;2023-05-17T07:04:37;10.9;;;2.5;;
61675;SDS011;47574;52.090;5.244;2023-05-17T07:06:15;13.8;;;2.8;;
61675;SDS011;47574;52.090;5.244;2023-05-17T07:09:31;14.7;;;2.9;;
61675;SDS011;47574;52.090;5.244;2023-05-17T07:11:08;10.4;;;2.6;;
61675;SDS011;47574;52.090;5.244;2023-05-17T07:12:46;9.71;;;2.7;;
61675;SDS011;47574;52.090;5.244;2023-05-17T07:14:23;13.1;;;2.6;;
61675;SDS011;47574;52.090;5.244;2023-05-17T07:17:37;10.5;;;2.5;;
61675;SDS011;47574;52.090;5.244;2023-05-17T07:19:15;13.5;;;2.5;;
61675;SDS011;47574;52.090;5.244;2023-05-17T07:20:52;11.6;;;2.5;;
61675;SDS011;47574;52.090;5.244;2023-05-17T07:24:08;12.7;;;2.5;;
61675;SDS011;47574;52.090;5.244;2023-05-17T07:25:46;10.0;;;2.21;;
61675;SDS011;47574;52.090;5.244;2023-05-17T07:27:24;11.3;;;2.0;;
61675;SDS011;47574;52.090;5.244;2023-05-17T07:29:02;11.9;;;2.5;;
61675;SDS011;47574;52.090;5.244;2023-05-17T07:32:17;10.4;;;2.4;;
61675;SDS011;47574;52.090;5.244;2023-05-17T07:33:55;10.4;;;2.21;;
61675;SDS011;47574;52.090;5.244;2023-05-17T07:35:32;13.9;;;2.8;;
61675;SDS011;47574;52.090;5.244;2023-05-17T07:38:47;9.5;;;2.31;;
61675;SDS011;47574;52.090;5.244;2023-05-17T07:40:25;12.2;;;2.31;;
61675;SDS011;47574;52.090;5.244;2023-05-17T07:42:02;7.9;;;2.31;;
61675;SDS011;47574;52.090;5.244;2023-05-17T07:43:40;11.6;;;2.5;;
61675;SDS011;47574;52.090;5.244;2023-05-17T07:46:56;10.9;;;2.6;;
61675;SDS011;47574;52.090;5.244;2023-05-17T07:48:33;11.1;;;2.21;;
61675;SDS011;47574;52.090;5.244;2023-05-17T07:50:11;8.0;;;2.1;;
61675;SDS011;47574;52.090;5.244;2023-05-17T07:53:26;8.71;;;2.31;;
61675;SDS011;47574;52.090;5.244;2023-05-17T07:55:03;5.9;;;1.9;;
61675;SDS011;47574;52.090;5.244;2023-05-17T07:56:40;7.6;;;1.9;;
61675;SDS011;47574;52.090;5.244;2023-05-17T07:58:18;7.6;;;1.8;;
61675;SDS011;47574;52.090;5.244;2023-05-17T08:01:32;7.2;;;2.1;;
61675;SDS011;47574;52.090;5.244;2023-05-17T08:03:10;6.2;;;1.4;;
61675;SDS011;47574;52.090;5.244;2023-05-17T08:04:47;10.4;;;2.31;;
61675;SDS011;47574;52.090;5.244;2023-05-17T08:08:02;10.0;;;2.4;;
61675;SDS011;47574;52.090;5.244;2023-05-17T08:09:40;8.5;;;1.8;;
61675;SDS011;47574;52.090;5.244;2023-05-17T08:11:16;8.9;;;1.7;;
61675;SDS011;47574;52.090;5.244;2023-05-17T08:12:53;8.5;;;1.8;;
61675;SDS011;47574;52.090;5.244;2023-05-17T08:16:07;9.21;;;1.8;;
61675;SDS011;47574;52.090;5.244;2023-05-17T08:17:44;7.8;;;1.7;;
61675;SDS011;47574;52.090;5.244;2023-05-17T08:19:22;6.6;;;1.7;;
61675;SDS011;47574;52.090;5.244;2023-05-17T08:22:38;7.5;;;1.9;;
61675;SDS011;47574;52.090;5.244;2023-05-17T08:24:15;7.2;;;1.6;;
61675;SDS011;47574;52.090;5.244;2023-05-17T08:25:53;7.4;;;1.6;;
61675;SDS011;47574;52.090;5.244;2023-05-17T08:27:30;7.8;;;1.8;;
61675;SDS011;47574;52.090;5.244;2023-05-17T08:30:45;7.1;;;2.0;;
61675;SDS011;47574;52.090;5.244;2023-05-17T08:32:23;8.2;;;1.6;;
61675;SDS011;47574;52.090;5.244;2023-05-17T08:34:00;10.6;;;2.21;;
61675;SDS011;47574;52.090;5.244;2023-05-17T08:37:16;8.81;;;2.21;;
61675;SDS011;47574;52.090;5.244;2023-05-17T08:38:54;9.81;;;1.9;;
61675;SDS011;47574;52.090;5.244;2023-05-17T08:40:31;6.8;;;1.9;;
61675;SDS011;47574;52.090;5.244;2023-05-17T08:42:09;11.0;;;1.8;;
61675;SDS011;47574;52.090;5.244;2023-05-17T08:45:26;7.9;;;1.6;;
61675;SDS011;47574;52.090;5.244;2023-05-17T08:47:05;8.1;;;1.5;;
61675;SDS011;47574;52.090;5.244;2023-05-17T08:48:46;8.6;;;2.1;;
61675;SDS011;47574;52.090;5.244;2023-05-17T08:52:05;8.5;;;1.8;;
61675;SDS011;47574;52.090;5.244;2023-05-17T08:53:45;8.4;;;1.8;;
61675;SDS011;47574;52.090;5.244;2023-05-17T08:55:24;9.0;;;2.0;;
61675;SDS011;47574;52.090;5.244;2023-05-17T08:57:03;9.1;;;1.5;;
61675;SDS011;47574;52.090;5.244;2023-05-17T09:00:22;5.5;;;1.5;;
61675;SDS011;47574;52.090;5.244;2023-05-17T09:02:01;6.9;;;1.8;;
61675;SDS011;47574;52.090;5.244;2023-05-17T09:03:40;10.8;;;2.1;;
61675;SDS011;47574;52.090;5.244;2023-05-17T09:05:23;8.4;;;1.8;;
61675;SDS011;47574;52.090;5.244;2023-05-17T09:08:39;8.2;;;1.8;;
61675;SDS011;47574;52.090;5.244;2023-05-17T09:10:17;7.1;;;1.5;;
61675;SDS011;47574;52.090;5.244;2023-05-17T09:11:55;8.6;;;1.9;;
61675;SDS011;47574;52.090;5.244;2023-05-17T09:13:32;9.0;;;1.7;;
61675;SDS011;47574;52.090;5.244;2023-05-17T09:16:54;10.9;;;1.9;;
61675;SDS011;47574;52.090;5.244;2023-05-17T09:18:31;8.4;;;2.0;;
61675;SDS011;47574;52.090;5.244;2023-05-17T09:20:09;9.21;;;1.8;;
61675;SDS011;47574;52.090;5.244;2023-05-17T09:23:25;6.9;;;1.5;;
61675;SDS011;47574;52.090;5.244;2023-05-17T09:25:03;7.6;;;1.8;;
61675;SDS011;47574;52.090;5.244;2023-05-17T09:26:41;6.6;;;1.8;;
61675;SDS011;47574;52.090;5.244;2023-05-17T09:28:20;6.9;;;1.9;;
61675;SDS011;47574;52.090;5.244;2023-05-17T09:31:38;8.1;;;1.5;;
61675;SDS011;47574;52.090;5.244;2023-05-17T09:33:16;7.7;;;1.8;;
61675;SDS011;47574;52.090;5.244;2023-05-17T09:34:58;6.8;;;1.5;;
61675;SDS011;47574;52.090;5.244;2023-05-17T09:36:37;7.3;;;1.8;;
61675;SDS011;47574;52.090;5.244;2023-05-17T09:39:54;8.1;;;1.8;;
61675;SDS011;47574;52.090;5.244;2023-05-17T09:41:32;11.0;;;1.9;;
61675;SDS011;47574;52.090;5.244;2023-05-17T09:43:21;6.0;;;1.5;;
61675;SDS011;47574;52.090;5.244;2023-05-17T09:44:59;8.2;;;1.6;;
61675;SDS011;47574;52.090;5.244;2023-05-17T09:48:17;7.6;;;1.6;;
61675;SDS011;47574;52.090;5.244;2023-05-17T09:49:56;5.8;;;2.0;;
61675;SDS011;47574;52.090;5.244;2023-05-17T09:51:35;7.9;;;2.21;;
61675;SDS011;47574;52.090;5.244;2023-05-17T09:53:23;8.0;;;1.5;;
61675;SDS011;47574;52.090;5.244;2023-05-17T09:56:39;6.3;;;1.6;;
61675;SDS011;47574;52.090;5.244;2023-05-17T09:58:17;6.3;;;1.4;;
61675;SDS011;47574;52.090;5.244;2023-05-17T09:59:55;4.8;;;1.4;;
61675;SDS011;47574;52.090;5.244;2023-05-17T10:03:11;5.11;;;1.6;;
61675;SDS011;47574;52.090;5.244;2023-05-17T10:04:49;7.7;;;1.6;;
61675;SDS011;47574;52.090;5.244;2023-05-17T10:06:28;5.6;;;1.2;;
61675;SDS011;47574;52.090;5.244;2023-05-17T10:08:06;6.8;;;1.5;;
61675;SDS011;47574;52.090;5.244;2023-05-17T10:11:26;4.7;;;1.5;;
61675;SDS011;47574;52.090;5.244;2023-05-17T10:13:07;4.7;;;1.5;;
61675;SDS011;47574;52.090;5.244;2023-05-17T10:14:48;7.1;;;1.4;;
61675;SDS011;47574;52.090;5.244;2023-05-17T10:16:26;5.5;;;1.3;;
61675;SDS011;47574;52.090;5.244;2023-05-17T10:19:44;7.9;;;1.6;;
61675;SDS011;47574;52.090;5.244;2023-05-17T10:21:23;9.0;;;1.5;;
61675;SDS011;47574;52.090;5.244;2023-05-17T10:23:01;5.3;;;1.3;;
61675;SDS011;47574;52.090;5.244;2023-05-17T10:24:43;6.1;;;1.4;;
61675;SDS011;47574;52.090;5.244;2023-05-17T10:27:58;8.1;;;1.6;;
61675;SDS011;47574;52.090;5.244;2023-05-17T10:29:37;8.81;;;1.8;;
61675;SDS011;47574;52.090;5.244;2023-05-17T10:31:15;4.1;;;1.11;;
61675;SDS011;47574;52.090;5.244;2023-05-17T10:34:32;6.0;;;1.7;;
61675;SDS011;47574;52.090;5.244;2023-05-17T10:36:10;7.7;;;1.8;;
61675;SDS011;47574;52.090;5.244;2023-05-17T10:37:52;7.7;;;1.7;;
61675;SDS011;47574;52.090;5.244;2023-05-17T10:39:30;8.5;;;1.6;;
61675;SDS011;47574;52.090;5.244;2023-05-17T10:42:48;4.91;;;1.3;;
61675;SDS011;47574;52.090;5.244;2023-05-17T10:44:29;6.6;;;1.8;;
61675;SDS011;47574;52.090;5.244;2023-05-17T10:46:10;8.31;;;1.6;;
61675;SDS011;47574;52.090;5.244;2023-05-17T10:47:51;8.2;;;1.6;;
61675;SDS011;47574;52.090;5.244;2023-05-17T10:51:09;9.31;;;1.6;;
61675;SDS011;47574;52.090;5.244;2023-05-17T10:52:48;4.2;;;1.3;;
61675;SDS011;47574;52.090;5.244;2023-05-17T10:54:35;6.9;;;1.7;;
61675;SDS011;47574;52.090;5.244;2023-05-17T10:56:15;6.9;;;1.7;;
61675;SDS011;47574;52.090;5.244;2023-05-17T10:59:54;6.6;;;1.6;;
61675;SDS011;47574;52.090;5.244;2023-05-17T11:01:49;5.7;;;1.6;;
61675;SDS011;47574;52.090;5.244;2023-05-17T11:03:29;5.5;;;1.3;;
61675;SDS011;47574;52.090;5.244;2023-05-17T11:05:06;7.5;;;1.4;;
61675;SDS011;47574;52.090;5.244;2023-05-17T11:07:31;5.9;;;1.6;;
61675;SDS011;47574;52.090;5.244;2023-05-17T11:09:12;6.9;;;1.6;;
61675;SDS011;47574;52.090;5.244;2023-05-17T11:11:07;6.1;;;1.5;;
61675;SDS011;47574;52.090;5.244;2023-05-17T11:12:46;8.0;;;1.6;;
61675;SDS011;47574;52.090;5.244;2023-05-17T11:16:02;9.9;;;1.8;;
61675;SDS011;47574;52.090;5.244;2023-05-17T11:17:48;9.1;;;1.7;;
61675;SDS011;47574;52.090;5.244;2023-05-17T11:19:27;6.3;;;1.8;;
61675;SDS011;47574;52.090;5.244;2023-05-17T11:22:48;9.5;;;1.6;;
61675;SDS011;47574;52.090;5.244;2023-05-17T11:24:33;5.8;;;1.9;;
61675;SDS011;47574;52.090;5.244;2023-05-17T11:26:15;6.6;;;1.7;;
61675;SDS011;47574;52.090;5.244;2023-05-17T11:27:58;7.9;;;1.9;;
61675;SDS011;47574;52.090;5.244;2023-05-17T11:29:36;8.81;;;2.1;;
61675;SDS011;47574;52.090;5.244;2023-05-17T11:33:06;6.7;;;1.6;;
61675;SDS011;47574;52.090;5.244;2023-05-17T11:34:49;6.4;;;1.8;;
61675;SDS011;47574;52.090;5.244;2023-05-17T11:36:28;5.0;;;1.5;;
61675;SDS011;47574;52.090;5.244;2023-05-17T11:38:13;7.1;;;1.6;;
61675;SDS011;47574;52.090;5.244;2023-05-17T11:41:46;9.81;;;2.1;;
61675;SDS011;47574;52.090;5.244;2023-05-17T11:43:25;8.1;;;1.9;;
61675;SDS011;47574;52.090;5.244;2023-05-17T11:45:04;10.6;;;2.4;;
61675;SDS011;47574;52.090;5.244;2023-05-17T11:46:42;6.0;;;1.8;;
61675;SDS011;47574;52.090;5.244;2023-05-17T11:48:21;7.1;;;1.8;;
61675;SDS011;47574;52.090;5.244;2023-05-17T11:51:39;7.1;;;1.8;;
61675;SDS011;47574;52.090;5.244;2023-05-17T11:53:16;7.0;;;1.8;;
61675;SDS011;47574;52.090;5.244;2023-05-17T11:54:56;5.8;;;1.7;;
61675;SDS011;47574;52.090;5.244;2023-05-17T11:58:13;9.1;;;2.21;;
61675;SDS011;47574;52.090;5.244;2023-05-17T11:59:57;8.71;;;2.1;;
61675;SDS011;47574;52.090;5.244;2023-05-17T12:01:42;11.3;;;2.0;;
61675;SDS011;47574;52.090;5.244;2023-05-17T12:03:22;7.9;;;1.9;;
61675;SDS011;47574;52.090;5.244;2023-05-17T12:06:40;8.1;;;2.0;;
61675;SDS011;47574;52.090;5.244;2023-05-17T12:08:20;9.21;;;2.31;;
61675;SDS011;47574;52.090;5.244;2023-05-17T12:09:58;8.4;;;2.0;;
61675;SDS011;47574;52.090;5.244;2023-05-17T12:11:35;7.7;;;2.5;;
61675;SDS011;47574;52.090;5.244;2023-05-17T12:14:51;8.9;;;2.21;;
61675;SDS011;47574;52.090;5.244;2023-05-17T12:16:28;10.8;;;2.5;;
61675;SDS011;47574;52.090;5.244;2023-05-17T12:18:07;7.8;;;2.1;;
61675;SDS011;47574;52.090;5.244;2023-05-17T12:19:44;10.3;;;2.4;;
61675;SDS011;47574;52.090;5.244;2023-05-17T12:23:00;9.4;;;2.6;;
61675;SDS011;47574;52.090;5.244;2023-05-17T12:24:37;9.1;;;2.1;;
61675;SDS011;47574;52.090;5.244;2023-05-17T12:26:17;8.4;;;2.0;;
61675;SDS011;47574;52.090;5.244;2023-05-17T12:29:48;7.3;;;2.0;;
61675;SDS011;47574;52.090;5.244;2023-05-17T12:31:25;10.4;;;2.31;;
61675;SDS011;47574;52.090;5.244;2023-05-17T12:33:06;8.0;;;2.21;;
61675;SDS011;47574;52.090;5.244;2023-05-17T12:34:43;7.0;;;2.0;;
61675;SDS011;47574;52.090;5.244;2023-05-17T12:37:57;7.5;;;2.6;;
61675;SDS011;47574;52.090;5.244;2023-05-17T12:39:34;9.0;;;2.21;;
61675;SDS011;47574;52.090;5.244;2023-05-17T12:41:11;6.4;;;2.0;;
61675;SDS011;47574;52.090;5.244;2023-05-17T12:42:49;6.4;;;2.0;;
61675;SDS011;47574;52.090;5.244;2023-05-17T12:46:02;12.3;;;2.5;;
61675;SDS011;47574;52.090;5.244;2023-05-17T12:47:41;8.2;;;2.21;;
61675;SDS011;47574;52.090;5.244;2023-05-17T12:49:18;9.9;;;2.4;;
61675;SDS011;47574;52.090;5.244;2023-05-17T12:52:32;8.5;;;2.21;;
61675;SDS011;47574;52.090;5.244;2023-05-17T12:54:09;9.21;;;2.0;;
61675;SDS011;47574;52.090;5.244;2023-05-17T12:55:46;5.9;;;2.0;;
61675;SDS011;47574;52.090;5.244;2023-05-17T12:57:23;8.71;;;2.4;;